createdAt,value
2023-04-15T00:02:16.769Z,94161.31
2023-04-15T00:04:59.986Z,94157.00
2023-04-15T00:07:45.786Z,94164.63
2023-04-15T00:10:29.407Z,94160.66
2023-04-15T00:13:12.685Z,94176.22
2023-04-15T00:15:56.262Z,94176.22
2023-04-15T00:18:39.891Z,94180.72
2023-04-15T00:21:23.098Z,94184.22
2023-04-15T00:24:07.802Z,94204.16
2023-04-15T00:26:51.036Z,94211.13
2023-04-15T00:29:35.067Z,94201.00
2023-04-15T00:32:18.467Z,94192.69
2023-04-15T00:35:02.401Z,94192.56
2023-04-15T00:37:46.417Z,94188.22
2023-04-15T00:40:31.302Z,94186.88
2023-04-15T00:43:14.514Z,94194.56
2023-04-15T00:46:00.347Z,94202.69
2023-04-15T00:48:44.939Z,94212.75
2023-04-15T00:51:28.156Z,94203.44
2023-04-15T00:54:11.686Z,94215.50
2023-04-15T00:56:56.722Z,94221.06
2023-04-15T00:59:40.183Z,94204.41
2023-04-15T01:02:24.312Z,94208.44
2023-04-15T01:05:08.531Z,94221.19
2023-04-15T01:07:52.014Z,94216.88
2023-04-15T01:10:35.448Z,94215.72
2023-04-15T01:13:21.575Z,94215.47
2023-04-15T01:16:04.847Z,94210.75
2023-04-15T01:18:48.570Z,94204.72
2023-04-15T01:21:32.004Z,94197.50
2023-04-15T01:24:19.420Z,94196.31
2023-04-15T01:27:05.633Z,94194.00
2023-04-15T01:29:49.015Z,94201.94
2023-04-15T01:32:32.688Z,94193.78
2023-04-15T01:35:15.914Z,94205.88
2023-04-15T01:38:05.085Z,94204.50
2023-04-15T01:40:48.317Z,94204.34
2023-04-15T01:43:33.181Z,94201.41
2023-04-15T01:46:16.949Z,94205.19
2023-04-15T01:49:00.308Z,94199.44
2023-04-15T01:51:43.500Z,94190.56
2023-04-15T01:54:27.916Z,94196.31
2023-04-15T01:57:11.258Z,94198.53
2023-04-15T01:59:56.261Z,94205.63
2023-04-15T02:02:40.159Z,94203.63
2023-04-15T02:05:23.474Z,94210.78
2023-04-15T02:08:09.439Z,94204.63
2023-04-15T02:10:53.002Z,94212.97
2023-04-15T02:13:36.566Z,94221.47
2023-04-15T02:16:21.471Z,94220.91
2023-04-15T02:19:04.932Z,94213.59
2023-04-15T02:21:48.107Z,94214.81
2023-04-15T02:24:32.176Z,94209.31
2023-04-15T02:27:18.523Z,94206.34
2023-04-15T02:30:01.868Z,94190.31
2023-04-15T02:32:46.704Z,94196.63
2023-04-15T02:35:30.046Z,94197.47
2023-04-15T02:38:14.340Z,94184.44
2023-04-15T02:40:57.865Z,94185.63
2023-04-15T02:43:41.129Z,94196.72
2023-04-15T02:46:24.445Z,94201.91
2023-04-15T02:49:09.637Z,94204.72
2023-04-15T02:51:53.003Z,94220.53
2023-04-15T02:54:36.065Z,94204.69
2023-04-15T02:57:19.353Z,94214.03
2023-04-15T03:00:02.487Z,94219.16
2023-04-15T03:02:47.416Z,94213.03
2023-04-15T03:05:32.266Z,94215.41
2023-04-15T03:08:16.112Z,94225.31
2023-04-15T03:11:01.070Z,94223.94
2023-04-15T03:13:44.508Z,94234.03
2023-04-15T03:16:28.089Z,94228.09
2023-04-15T03:19:11.424Z,94214.25
2023-04-15T03:21:56.522Z,94237.19
2023-04-15T03:24:39.682Z,94238.38
2023-04-15T03:27:24.314Z,94240.34
2023-04-15T03:30:09.305Z,94233.22
2023-04-15T03:32:53.581Z,94238.13
2023-04-15T03:35:36.878Z,94258.50
2023-04-15T03:38:21.686Z,94254.19
2023-04-15T03:41:05.266Z,94242.72
2023-04-15T03:43:48.657Z,94248.63
2023-04-15T03:46:32.217Z,94267.22
2023-04-15T03:49:16.449Z,94266.06
2023-04-15T03:52:00.874Z,94269.59
2023-04-15T03:54:46.137Z,94287.41
2023-04-15T03:57:30.913Z,94277.13
2023-04-15T04:00:14.355Z,94273.56
2023-04-15T04:02:57.869Z,94279.13
2023-04-15T04:05:41.605Z,94269.63
2023-04-15T04:08:24.738Z,94273.38
2023-04-15T04:11:10.548Z,94285.44
2023-04-15T04:13:53.762Z,94278.72
2023-04-15T04:16:37.458Z,94276.31
2023-04-15T04:19:21.260Z,94277.13
2023-04-15T04:22:04.718Z,94285.41
2023-04-15T04:24:48.836Z,94278.25
2023-04-15T04:27:33.492Z,94286.56
2023-04-15T04:30:17.982Z,94278.63
2023-04-15T04:33:01.336Z,94278.59
2023-04-15T04:35:44.588Z,94285.31
2023-04-15T04:38:27.709Z,94285.25
2023-04-15T04:41:12.090Z,94286.78
2023-04-15T04:43:56.722Z,94283.44
2023-04-15T04:46:40.655Z,94298.25
2023-04-15T04:49:25.380Z,94294.81
2023-04-15T04:52:11.117Z,94306.03
2023-04-15T04:54:55.431Z,94301.22
2023-04-15T04:57:39.623Z,94294.44
2023-04-15T05:00:24.799Z,94297.31
2023-04-15T05:03:08.253Z,94312.16
2023-04-15T05:05:52.031Z,94317.22
2023-04-15T05:08:35.174Z,94325.91
2023-04-15T05:11:20.748Z,94325.44
2023-04-15T05:14:03.908Z,94334.91
2023-04-15T05:16:50.894Z,94337.13
2023-04-15T05:19:34.162Z,94339.44
2023-04-15T05:22:17.312Z,94344.63
2023-04-15T05:25:00.668Z,94337.16
2023-04-15T05:27:44.118Z,94347.38
2023-04-15T05:30:27.512Z,94350.19
2023-04-15T05:33:13.766Z,94337.81
2023-04-15T05:35:57.318Z,94337.03
2023-04-15T05:38:43.326Z,94331.53
2023-04-15T05:41:26.775Z,94333.94
2023-04-15T05:44:10.212Z,94339.19
2023-04-15T05:46:53.559Z,94343.41
2023-04-15T05:49:38.920Z,94336.75
2023-04-15T05:52:22.164Z,94344.28
2023-04-15T05:55:06.644Z,94340.91
2023-04-15T05:57:50.004Z,94332.41
2023-04-15T06:00:33.250Z,94347.19
2023-04-15T06:03:18.410Z,94354.28
2023-04-15T06:06:05.903Z,94362.47
2023-04-15T06:08:49.058Z,94359.13
2023-04-15T06:11:32.968Z,94357.09
2023-04-15T06:14:16.227Z,94358.31
2023-04-15T06:16:59.286Z,94355.47
2023-04-15T06:19:42.584Z,94347.88
2023-04-15T06:22:27.180Z,94344.13
2023-04-15T06:25:11.064Z,94358.75
2023-04-15T06:27:54.093Z,94355.78
2023-04-15T06:30:37.248Z,94347.69
2023-04-15T06:33:20.336Z,94357.41
2023-04-15T06:36:03.703Z,94354.50
2023-04-15T06:38:48.279Z,94357.16
2023-04-15T06:41:31.421Z,94367.38
2023-04-15T06:44:14.690Z,94358.56
2023-04-15T06:46:57.882Z,94367.22
2023-04-15T06:49:41.427Z,94371.91
2023-04-15T06:52:26.343Z,94373.00
2023-04-15T06:55:11.593Z,94377.66
2023-04-15T06:57:54.838Z,94377.03
2023-04-15T07:00:39.353Z,94374.03
2023-04-15T07:03:22.596Z,94375.19
2023-04-15T07:06:07.218Z,94389.13
2023-04-15T07:08:50.445Z,94380.84
2023-04-15T07:11:34.953Z,94379.91
2023-04-15T07:14:18.258Z,94395.34
2023-04-15T07:17:01.484Z,94389.06
2023-04-15T07:19:44.645Z,94383.41
2023-04-15T07:22:28.047Z,94376.38
2023-04-15T07:25:11.456Z,94384.47
2023-04-15T07:27:56.510Z,94378.34
2023-04-15T07:30:39.781Z,94390.81
2023-04-15T07:33:23.940Z,94391.06
2023-04-15T07:36:07.380Z,94394.66
2023-04-15T07:38:50.434Z,94390.31
2023-04-15T07:41:34.028Z,94390.25
2023-04-15T07:44:18.690Z,94394.25
2023-04-15T07:47:02.020Z,94383.34
2023-04-15T07:49:45.901Z,94390.47
2023-04-15T07:52:29.117Z,94402.06
2023-04-15T07:55:12.589Z,94400.25
2023-04-15T07:57:56.028Z,94405.19
2023-04-15T08:00:40.799Z,94404.28
2023-04-15T08:03:24.178Z,94408.84
2023-04-15T08:06:09.503Z,94410.47
2023-04-15T08:08:53.000Z,94414.53
2023-04-15T08:11:36.646Z,94409.94
2023-04-15T08:14:20.281Z,94406.75
2023-04-15T08:17:05.720Z,94410.59
2023-04-15T08:19:52.165Z,94415.72
2023-04-15T08:22:35.702Z,94409.47
2023-04-15T08:25:19.148Z,94408.28
2023-04-15T08:28:07.213Z,94405.28
2023-04-15T08:30:51.993Z,94405.75
2023-04-15T08:33:37.072Z,94406.56
2023-04-15T08:36:22.274Z,94398.47
2023-04-15T08:39:06.247Z,94397.75
2023-04-15T08:41:54.639Z,94408.09
2023-04-15T08:44:38.536Z,94397.09
2023-04-15T08:47:23.430Z,94402.06
2023-04-15T08:50:12.013Z,94397.97
2023-04-15T08:52:57.166Z,94385.91
2023-04-15T08:55:46.656Z,94384.00
2023-04-15T08:58:30.929Z,94384.69
2023-04-15T09:01:14.823Z,94382.34
2023-04-15T09:03:58.786Z,94375.75
2023-04-15T09:06:43.250Z,94373.28
2023-04-15T09:09:26.942Z,94380.13
2023-04-15T09:12:10.777Z,94372.03
2023-04-15T09:14:54.137Z,94358.75
2023-04-15T09:17:43.231Z,94356.25
2023-04-15T09:20:26.580Z,94349.13
2023-04-15T09:23:17.769Z,94348.47
2023-04-15T09:26:00.985Z,94347.78
2023-04-15T09:28:44.464Z,94350.47
2023-04-15T09:31:31.452Z,94342.91
2023-04-15T09:34:14.850Z,94359.75
2023-04-15T09:36:58.704Z,94361.44
2023-04-15T09:39:51.109Z,94353.47
2023-04-15T09:42:34.879Z,94355.84
2023-04-15T09:45:18.047Z,94355.34
2023-04-15T09:48:15.660Z,94364.25
2023-04-15T09:51:02.695Z,94351.75
2023-04-15T09:53:46.137Z,94365.41
2023-04-15T09:56:39.616Z,94366.47
2023-04-15T09:59:22.941Z,94359.16
2023-04-15T10:02:07.870Z,94354.44
2023-04-15T10:04:53.944Z,94350.78
2023-04-15T10:07:37.124Z,94344.25
2023-04-15T10:10:21.044Z,94352.19
2023-04-15T10:13:06.058Z,94339.44
2023-04-15T10:15:53.549Z,94337.06
2023-04-15T10:18:39.307Z,94324.34
2023-04-15T10:21:23.886Z,94314.19
2023-04-15T10:24:08.658Z,94313.09
2023-04-15T10:26:52.422Z,94305.81
2023-04-15T10:29:38.991Z,94308.16
2023-04-15T10:32:24.001Z,94314.97
2023-04-15T10:35:09.630Z,94315.63
2023-04-15T10:37:52.817Z,94311.22
2023-04-15T10:40:35.951Z,94315.81
2023-04-15T10:43:28.316Z,94302.59
2023-04-15T10:46:13.486Z,94318.56
2023-04-15T10:48:56.718Z,94308.53
2023-04-15T10:51:42.731Z,94303.56
2023-04-15T10:54:33.982Z,94298.44
2023-04-15T10:57:22.810Z,94296.47
2023-04-15T11:00:14.502Z,94299.16
2023-04-15T11:03:00.633Z,94288.34
2023-04-15T11:05:53.968Z,94287.16
2023-04-15T11:08:55.861Z,94297.72
2023-04-15T11:12:07.636Z,94297.84
2023-04-15T11:14:54.327Z,94299.97
2023-04-15T11:17:37.821Z,94300.84
2023-04-15T11:20:22.987Z,94289.34
2023-04-15T11:23:13.890Z,94302.06
2023-04-15T11:25:59.577Z,94305.59
2023-04-15T11:28:44.989Z,94299.06
2023-04-15T11:31:30.472Z,94295.47
2023-04-15T11:34:13.654Z,94294.97
2023-04-15T11:37:00.534Z,94297.13
2023-04-15T11:39:44.007Z,94297.94
2023-04-15T11:42:36.249Z,94301.16
2023-04-15T11:45:26.399Z,94290.00
2023-04-15T11:48:11.769Z,94285.16
2023-04-15T11:50:58.858Z,94282.03
2023-04-15T11:53:47.976Z,94279.38
2023-04-15T11:56:32.706Z,94282.53
2023-04-15T11:59:15.884Z,94272.81
2023-04-15T12:01:59.805Z,94271.81
2023-04-15T12:04:45.716Z,94266.22
2023-04-15T12:07:30.608Z,94265.56
2023-04-15T12:10:20.446Z,94273.16
2023-04-15T12:13:09.222Z,94270.75
2023-04-15T12:15:53.333Z,94266.56
2023-04-15T12:18:39.656Z,94262.84
2023-04-15T12:21:24.224Z,94268.25
2023-04-15T12:24:09.833Z,94274.78
2023-04-15T12:26:57.410Z,94270.47
2023-04-15T12:29:45.607Z,94267.19
2023-04-15T12:32:29.299Z,94274.34
2023-04-15T12:35:13.272Z,94274.50
2023-04-15T12:37:57.658Z,94281.38
2023-04-15T12:40:42.077Z,94278.59
2023-04-15T12:43:27.839Z,94287.44
2023-04-15T12:46:11.092Z,94289.09
2023-04-15T12:48:54.986Z,94292.03
2023-04-15T12:51:40.452Z,94288.69
2023-04-15T12:54:23.768Z,94285.59
2023-04-15T12:57:07.891Z,94284.75
2023-04-15T12:59:54.181Z,94281.88
2023-04-15T13:02:38.849Z,94280.91
2023-04-15T13:05:22.568Z,94281.59
2023-04-15T13:08:06.257Z,94283.25
2023-04-15T13:10:49.367Z,94285.56
2023-04-15T13:13:33.740Z,94285.81
2023-04-15T13:16:24.301Z,94279.50
2023-04-15T13:19:10.226Z,94273.69
2023-04-15T13:21:53.325Z,94273.72
2023-04-15T13:24:36.399Z,94276.16
2023-04-15T13:27:19.517Z,94271.22
2023-04-15T13:30:03.418Z,94269.59
2023-04-15T13:32:50.401Z,94273.66
2023-04-15T13:35:34.282Z,94264.66
2023-04-15T13:38:17.359Z,94264.03
2023-04-15T13:41:00.481Z,94269.66
2023-04-15T13:43:43.559Z,94260.25
2023-04-15T13:46:27.137Z,94263.88
2023-04-15T13:49:11.679Z,94261.34
2023-04-15T13:51:54.891Z,94263.03
2023-04-15T13:54:38.426Z,94270.13
2023-04-15T13:57:21.610Z,94249.16
2023-04-15T14:00:06.199Z,94271.53
2023-04-15T14:02:49.816Z,94262.28
2023-04-15T14:05:35.702Z,94248.56
2023-04-15T14:08:19.198Z,94257.41
2023-04-15T14:11:05.918Z,94262.00
2023-04-15T14:13:48.959Z,94258.31
2023-04-15T14:16:33.894Z,94259.00
2023-04-15T14:19:20.923Z,94265.63
2023-04-15T14:22:05.774Z,94267.41
2023-04-15T14:24:52.196Z,94259.34
2023-04-15T14:27:36.131Z,94262.94
2023-04-15T14:30:20.250Z,94257.50
2023-04-15T14:33:03.852Z,94256.53
2023-04-15T14:35:49.668Z,94251.34
2023-04-15T14:38:39.074Z,94265.56
2023-04-15T14:41:23.454Z,94257.44
2023-04-15T14:44:09.696Z,94270.91
2023-04-15T14:46:53.580Z,94264.03
2023-04-15T14:49:36.991Z,94269.66
2023-04-15T14:52:20.476Z,94264.97
2023-04-15T14:55:05.336Z,94263.25
2023-04-15T14:57:51.524Z,94260.34
2023-04-15T15:00:39.893Z,94268.66
2023-04-15T15:03:25.970Z,94273.56
2023-04-15T15:06:10.659Z,94262.03
2023-04-15T15:08:55.742Z,94256.75
2023-04-15T15:11:40.573Z,94261.63
2023-04-15T15:14:24.184Z,94255.84
2023-04-15T15:17:07.463Z,94254.13
2023-04-15T15:19:52.914Z,94248.25
2023-04-15T15:22:36.073Z,94251.13
2023-04-15T15:25:19.232Z,94256.66
2023-04-15T15:28:04.066Z,94249.97
2023-04-15T15:30:48.192Z,94247.19
2023-04-15T15:33:32.461Z,94249.75
2023-04-15T15:36:15.751Z,94245.09
2023-04-15T15:39:00.290Z,94249.03
2023-04-15T15:41:44.421Z,94256.75
2023-04-15T15:44:29.400Z,94252.34
2023-04-15T15:47:12.916Z,94247.94
2023-04-15T15:49:56.493Z,94248.41
2023-04-15T15:52:40.005Z,94253.97
2023-04-15T15:55:26.044Z,94253.44
2023-04-15T15:58:09.119Z,94252.66
2023-04-15T16:00:54.237Z,94255.84
2023-04-15T16:03:37.799Z,94247.47
2023-04-15T16:06:21.190Z,94255.84
2023-04-15T16:09:04.734Z,94252.19
2023-04-15T16:11:48.486Z,94253.25
2023-04-15T16:14:31.743Z,94251.66
2023-04-15T16:17:16.521Z,94249.09
2023-04-15T16:20:01.381Z,94254.91
2023-04-15T16:22:44.861Z,94246.03
2023-04-15T16:25:28.234Z,94244.69
2023-04-15T16:28:25.204Z,94253.31
2023-04-15T16:31:09.579Z,94249.22
2023-04-15T16:33:56.004Z,94254.78
2023-04-15T16:36:41.080Z,94256.09
2023-04-15T16:39:24.821Z,94258.47
2023-04-15T16:42:08.707Z,94256.66
2023-04-15T16:44:52.630Z,94254.84
2023-04-15T16:47:35.886Z,94257.75
2023-04-15T16:50:23.073Z,94258.53
2023-04-15T16:53:06.824Z,94259.34
2023-04-15T16:55:50.388Z,94263.00
2023-04-15T16:58:33.523Z,94259.09
2023-04-15T17:01:17.315Z,94264.31
2023-04-15T17:04:00.646Z,94260.41
2023-04-15T17:06:46.458Z,94256.22
2023-04-15T17:09:31.241Z,94258.81
2023-04-15T17:12:15.482Z,94266.38
2023-04-15T17:14:58.675Z,94273.63
2023-04-15T17:17:41.879Z,94270.22
2023-04-15T17:20:25.007Z,94273.06
2023-04-15T17:23:10.522Z,94280.63
2023-04-15T17:25:54.125Z,94283.72
2023-04-15T17:28:37.438Z,94285.28
2023-04-15T17:31:20.870Z,94285.78
2023-04-15T17:34:09.291Z,94287.84
2023-04-15T17:36:55.407Z,94299.84
2023-04-15T17:39:40.199Z,94301.38
2023-04-15T17:42:24.661Z,94298.22
2023-04-15T17:45:09.052Z,94312.25
2023-04-15T17:47:52.813Z,94307.47
2023-04-15T17:50:36.359Z,94305.84
2023-04-15T17:53:20.049Z,94308.44
2023-04-15T17:56:04.805Z,94308.84
2023-04-15T17:58:48.222Z,94316.56
2023-04-15T18:01:32.879Z,94320.66
2023-04-15T18:04:16.386Z,94322.72
2023-04-15T18:06:59.593Z,94328.72
2023-04-15T18:09:44.434Z,94330.72
2023-04-15T18:12:28.920Z,94341.34
2023-04-15T18:15:14.723Z,94332.94
2023-04-15T18:17:58.166Z,94339.06
2023-04-15T18:20:41.431Z,94336.44
2023-04-15T18:23:24.787Z,94341.81
2023-04-15T18:26:08.410Z,94341.81
2023-04-15T18:28:56.100Z,94342.06
2023-04-15T18:31:39.333Z,94336.56
2023-04-15T18:34:22.689Z,94344.59
2023-04-15T18:37:07.104Z,94346.38
2023-04-15T18:39:50.396Z,94348.19
2023-04-15T18:42:33.580Z,94346.00
2023-04-15T18:45:22.686Z,94345.88
2023-04-15T18:48:06.825Z,94346.91
2023-04-15T18:50:54.002Z,94354.63
2023-04-15T18:53:37.166Z,94348.91
2023-04-15T18:56:20.441Z,94350.91
2023-04-15T18:59:08.320Z,94353.38
2023-04-15T19:02:09.163Z,94357.94
2023-04-15T19:04:52.662Z,94361.28
2023-04-15T19:07:36.619Z,94352.38
2023-04-15T19:10:20.022Z,94358.78
2023-04-15T19:13:05.162Z,94361.16
2023-04-15T19:15:48.655Z,94362.19
2023-04-15T19:18:33.253Z,94368.91
2023-04-15T19:21:16.702Z,94368.44
2023-04-15T19:24:01.570Z,94370.47
2023-04-15T19:26:46.337Z,94368.50
2023-04-15T19:29:29.649Z,94372.06
2023-04-15T19:32:14.220Z,94372.69
2023-04-15T19:34:58.821Z,94368.75
2023-04-15T19:37:42.376Z,94362.84
2023-04-15T19:40:25.767Z,94363.66
2023-04-15T19:43:09.106Z,94357.97
2023-04-15T19:45:54.793Z,94355.94
2023-04-15T19:48:39.276Z,94365.88
2023-04-15T19:51:23.978Z,94365.03
2023-04-15T19:54:07.488Z,94368.72
2023-04-15T19:56:50.791Z,94373.13
2023-04-15T19:59:34.014Z,94368.53
2023-04-15T20:02:17.672Z,94373.44
2023-04-15T20:05:01.508Z,94368.72
2023-04-15T20:07:48.584Z,94370.22
2023-04-15T20:10:32.756Z,94368.25
2023-04-15T20:13:16.311Z,94384.94
2023-04-15T20:16:00.016Z,94384.94
2023-04-15T20:18:43.162Z,94380.84
2023-04-15T20:21:26.368Z,94380.34
2023-04-15T20:24:11.122Z,94375.31
2023-04-15T20:26:54.365Z,94381.16
2023-04-15T20:29:37.906Z,94380.53
2023-04-15T20:32:21.248Z,94380.38
2023-04-15T20:35:05.741Z,94385.97
2023-04-15T20:37:50.302Z,94392.13
2023-04-15T20:40:35.063Z,94403.16
2023-04-15T20:43:20.642Z,94398.44
2023-04-15T20:46:13.830Z,94391.75
2023-04-15T20:49:04.388Z,94386.38
2023-04-15T20:51:47.732Z,94388.13
2023-04-15T20:54:30.937Z,94394.25
2023-04-15T20:57:15.694Z,94392.34
2023-04-15T20:59:58.805Z,94398.56
2023-04-15T21:02:45.695Z,94401.63
2023-04-15T21:05:29.076Z,94403.31
2023-04-15T21:08:12.977Z,94397.38
2023-04-15T21:10:56.642Z,94406.28
2023-04-15T21:13:41.918Z,94410.09
2023-04-15T21:16:25.377Z,94411.09
2023-04-15T21:19:09.140Z,94412.97
2023-04-15T21:21:54.955Z,94413.84
2023-04-15T21:24:38.336Z,94420.38
2023-04-15T21:27:22.870Z,94428.56
2023-04-15T21:30:09.259Z,94425.75
2023-04-15T21:32:52.711Z,94427.34
2023-04-15T21:35:36.351Z,94428.41
2023-04-15T21:38:21.333Z,94429.53
2023-04-15T21:41:09.756Z,94437.75
2023-04-15T21:43:53.187Z,94438.59
2023-04-15T21:46:37.915Z,94438.06
2023-04-15T21:49:24.933Z,94442.59
2023-04-15T21:52:10.128Z,94445.31
2023-04-15T21:54:53.455Z,94439.38
2023-04-15T21:57:36.960Z,94447.19
2023-04-15T22:00:21.559Z,94442.47
2023-04-15T22:03:06.623Z,94441.69
2023-04-15T22:05:49.968Z,94441.44
2023-04-15T22:08:44.559Z,94439.78
2023-04-15T22:11:36.128Z,94447.53
2023-04-15T22:14:19.424Z,94442.31
2023-04-15T22:17:03.933Z,94440.09
2023-04-15T22:19:48.933Z,94435.84
2023-04-15T22:22:44.248Z,94442.31
2023-04-15T22:25:28.695Z,94446.88
2023-04-15T22:28:11.817Z,94444.44
2023-04-15T22:30:56.005Z,94445.53
2023-04-15T22:33:39.781Z,94444.84
2023-04-15T22:36:25.446Z,94431.59
2023-04-15T22:39:09.177Z,94440.66
2023-04-15T22:41:52.496Z,94443.56
2023-04-15T22:44:35.777Z,94438.84
2023-04-15T22:47:19.739Z,94430.03
2023-04-15T22:50:03.400Z,94433.00
2023-04-15T22:52:48.404Z,94423.69
2023-04-15T22:55:34.157Z,94424.78
2023-04-15T22:58:18.682Z,94422.56
2023-04-15T23:01:02.199Z,94411.53
2023-04-15T23:03:57.123Z,94415.31
2023-04-15T23:06:49.172Z,94425.69
2023-04-15T23:09:34.144Z,94429.72
2023-04-15T23:12:17.588Z,94421.56
2023-04-15T23:15:01.097Z,94425.16
2023-04-15T23:17:45.615Z,94416.25
2023-04-15T23:20:29.098Z,94423.03
2023-04-15T23:23:12.426Z,94425.75
2023-04-15T23:25:56.992Z,94426.69
2023-04-15T23:28:40.200Z,94426.38
2023-04-15T23:31:23.788Z,94421.09
2023-04-15T23:34:08.326Z,94426.41
2023-04-15T23:36:51.797Z,94422.16
2023-04-15T23:39:35.353Z,94428.84
2023-04-15T23:42:20.395Z,94420.16
2023-04-15T23:45:03.979Z,94424.22
2023-04-15T23:47:47.273Z,94418.03
2023-04-15T23:50:30.813Z,94411.28
2023-04-15T23:53:13.965Z,94414.78
2023-04-15T23:55:57.582Z,94415.94
2023-04-15T23:58:42.142Z,94404.41
